createdAt,value
2019-04-07T00:00:33.474Z,99.90
2019-04-07T00:03:01.279Z,99.90
2019-04-07T00:05:28.751Z,99.90
2019-04-07T00:07:56.374Z,99.90
2019-04-07T00:10:24.946Z,99.90
2019-04-07T00:12:52.703Z,99.90
2019-04-07T00:15:20.774Z,99.90
2019-04-07T00:17:48.310Z,99.90
2019-04-07T00:20:15.772Z,99.90
2019-04-07T00:22:43.196Z,99.90
2019-04-07T00:25:10.682Z,99.90
2019-04-07T00:27:38.073Z,99.90
2019-04-07T00:30:06.520Z,99.90
2019-04-07T00:32:33.970Z,99.90
2019-04-07T00:35:01.396Z,99.90
2019-04-07T00:37:29.496Z,99.90
2019-04-07T00:39:57.735Z,99.90
2019-04-07T00:42:25.879Z,99.90
2019-04-07T00:44:53.337Z,99.90
2019-04-07T00:47:20.896Z,99.90
2019-04-07T00:49:48.344Z,99.90
2019-04-07T00:52:18.223Z,99.90
2019-04-07T00:54:45.890Z,99.90
2019-04-07T00:57:14.219Z,99.90
2019-04-07T00:59:42.182Z,99.90
2019-04-07T01:02:10.586Z,99.90
2019-04-07T01:04:38.065Z,99.90
2019-04-07T01:07:05.488Z,99.90
2019-04-07T01:09:32.945Z,99.90
2019-04-07T01:12:20.379Z,99.90
2019-04-07T01:14:47.898Z,99.90
2019-04-07T01:17:15.739Z,99.90
2019-04-07T01:19:44.261Z,99.90
2019-04-07T01:22:11.694Z,99.90
2019-04-07T01:24:39.489Z,99.90
2019-04-07T01:27:06.914Z,99.90
2019-04-07T01:29:34.340Z,99.90
2019-04-07T01:32:01.783Z,99.90
2019-04-07T01:34:29.206Z,99.90
2019-04-07T01:36:56.785Z,99.90
2019-04-07T01:39:24.255Z,99.90
2019-04-07T01:42:00.017Z,99.90
2019-04-07T01:44:33.406Z,99.90
2019-04-07T01:47:26.720Z,99.90
2019-04-07T01:50:03.592Z,99.90
2019-04-07T01:52:50.542Z,99.90
2019-04-07T01:55:37.454Z,99.90
2019-04-07T01:58:22.629Z,99.90
2019-04-07T02:01:12.940Z,99.90
2019-04-07T02:03:53.696Z,99.90
2019-04-07T02:06:36.496Z,99.90
2019-04-07T02:09:24.811Z,99.90
2019-04-07T02:12:14.941Z,99.90
2019-04-07T02:15:00.956Z,99.90
2019-04-07T02:17:34.071Z,99.90
2019-04-07T02:20:24.005Z,99.90
2019-04-07T02:23:06.314Z,99.90
2019-04-07T02:25:42.771Z,99.90
2019-04-07T02:28:29.736Z,99.90
2019-04-07T02:31:17.150Z,99.90
2019-04-07T02:34:07.133Z,99.90
2019-04-07T02:37:06.630Z,99.90
2019-04-07T02:39:56.782Z,99.90
2019-04-07T02:42:59.485Z,99.90
2019-04-07T02:45:34.352Z,99.90
2019-04-07T02:48:24.201Z,99.90
2019-04-07T02:51:08.138Z,99.90
2019-04-07T02:53:42.009Z,99.90
2019-04-07T02:56:27.982Z,99.90
2019-04-07T02:59:20.630Z,99.90
2019-04-07T03:01:59.342Z,99.90
2019-04-07T03:04:46.019Z,99.90
2019-04-07T03:07:19.859Z,99.90
2019-04-07T03:10:00.201Z,99.90
2019-04-07T03:12:48.391Z,99.90
2019-04-07T03:15:41.383Z,99.90
2019-04-07T03:18:20.160Z,99.90
2019-04-07T03:21:08.133Z,99.90
2019-04-07T03:24:00.958Z,99.90
2019-04-07T03:26:57.015Z,99.90
2019-04-07T03:29:42.534Z,99.90
2019-04-07T03:32:27.638Z,99.90
2019-04-07T03:35:15.056Z,99.90
2019-04-07T03:37:49.021Z,99.90
2019-04-07T03:40:42.891Z,99.90
2019-04-07T03:43:35.848Z,99.90
2019-04-07T03:46:32.580Z,99.90
2019-04-07T03:49:11.514Z,99.90
2019-04-07T03:52:05.643Z,99.90
2019-04-07T03:54:55.447Z,99.90
2019-04-07T03:57:41.958Z,99.90
2019-04-07T04:00:53.714Z,99.90
2019-04-07T04:03:37.280Z,99.90
2019-04-07T04:06:20.994Z,99.90
2019-04-07T04:08:55.017Z,99.90
2019-04-07T04:11:39.403Z,99.90
2019-04-07T04:14:35.180Z,99.90
2019-04-07T04:17:02.797Z,99.90
2019-04-07T04:19:30.307Z,99.90
2019-04-07T04:21:58.759Z,99.90
2019-04-07T04:24:26.597Z,99.90
2019-04-07T04:26:54.263Z,99.90
2019-04-07T04:29:23.151Z,99.90
2019-04-07T04:31:50.757Z,99.90
2019-04-07T04:34:19.093Z,99.90
2019-04-07T04:36:47.857Z,99.90
2019-04-07T04:39:18.688Z,99.90
2019-04-07T04:41:44.730Z,99.90
2019-04-07T04:44:12.320Z,99.90
2019-04-07T04:46:40.752Z,99.90
2019-04-07T04:49:08.681Z,99.90
2019-04-07T04:51:39.301Z,99.90
2019-04-07T04:54:06.980Z,99.90
2019-04-07T04:56:34.497Z,99.90
2019-04-07T04:59:02.196Z,99.90
2019-04-07T05:01:29.615Z,99.90
2019-04-07T05:03:57.313Z,99.90
2019-04-07T05:06:25.370Z,99.90
2019-04-07T05:08:53.258Z,99.90
2019-04-07T05:11:21.172Z,99.90
2019-04-07T05:13:48.926Z,99.90
2019-04-07T05:16:16.407Z,99.90
2019-04-07T05:18:43.829Z,99.90
2019-04-07T05:21:11.833Z,99.90
2019-04-07T05:23:39.459Z,99.90
2019-04-07T05:26:07.072Z,99.90
2019-04-07T05:28:36.887Z,99.90
2019-04-07T05:31:04.318Z,99.90
2019-04-07T05:33:32.030Z,99.90
2019-04-07T05:35:59.486Z,99.90
2019-04-07T05:38:26.913Z,99.90
2019-04-07T05:40:55.326Z,99.90
2019-04-07T05:43:22.838Z,99.90
2019-04-07T05:45:50.924Z,99.90
2019-04-07T05:48:20.350Z,99.90
2019-04-07T05:50:48.742Z,99.90
2019-04-07T05:53:17.222Z,99.90
2019-04-07T05:55:44.868Z,99.90
2019-04-07T05:58:15.279Z,99.90
2019-04-07T06:00:45.769Z,99.90
2019-04-07T06:03:12.358Z,99.90
2019-04-07T06:05:40.035Z,99.90
2019-04-07T06:08:22.370Z,99.90
2019-04-07T06:10:37.036Z,99.90
2019-04-07T06:13:05.339Z,99.90
2019-04-07T06:15:33.537Z,99.90
2019-04-07T06:18:01.472Z,99.90
2019-04-07T06:20:30.196Z,99.90
2019-04-07T06:22:57.670Z,99.90
2019-04-07T06:25:25.166Z,99.90
2019-04-07T06:27:53.175Z,99.90
2019-04-07T06:30:23.218Z,99.90
2019-04-07T06:32:51.519Z,99.90
2019-04-07T06:35:19.295Z,99.90
2019-04-07T06:37:47.587Z,99.90
2019-04-07T06:40:15.449Z,99.90
2019-04-07T06:42:44.750Z,99.90
2019-04-07T06:45:14.129Z,99.90
2019-04-07T06:47:48.610Z,99.90
2019-04-07T06:50:45.490Z,99.90
2019-04-07T06:53:30.119Z,99.90
2019-04-07T06:56:12.627Z,99.90
2019-04-07T06:59:00.183Z,99.90
2019-04-07T07:01:43.776Z,99.90
2019-04-07T07:04:30.014Z,99.90
2019-04-07T07:07:16.773Z,99.90
2019-04-07T07:10:06.234Z,99.90
2019-04-07T07:12:47.215Z,99.90
2019-04-07T07:15:34.572Z,99.90
2019-04-07T07:18:12.169Z,99.90
2019-04-07T07:21:08.169Z,99.90
2019-04-07T07:23:38.583Z,99.90
2019-04-07T07:26:06.138Z,99.90
2019-04-07T07:28:33.751Z,99.90
2019-04-07T07:31:02.144Z,99.90
2019-04-07T07:33:29.645Z,99.60
2019-04-07T07:35:59.303Z,98.80
2019-04-07T07:38:30.258Z,98.60
2019-04-07T07:40:56.934Z,98.00
2019-04-07T07:43:27.970Z,97.90
2019-04-07T07:45:53.762Z,97.90
2019-04-07T07:48:26.096Z,97.50
2019-04-07T07:50:51.156Z,97.90
2019-04-07T07:53:21.904Z,97.60
2019-04-07T07:55:49.729Z,97.30
2019-04-07T07:58:17.321Z,96.50
2019-04-07T08:00:46.066Z,96.80
2019-04-07T08:03:13.782Z,96.70
2019-04-07T08:05:41.850Z,96.20
2019-04-07T08:08:09.302Z,96.30
2019-04-07T08:10:37.569Z,95.40
2019-04-07T08:13:07.717Z,94.90
2019-04-07T08:15:34.891Z,94.70
2019-04-07T08:18:04.677Z,94.70
2019-04-07T08:20:31.866Z,94.20
2019-04-07T08:23:00.681Z,93.60
2019-04-07T08:25:28.198Z,93.20
2019-04-07T08:27:56.477Z,92.60
2019-04-07T08:30:26.073Z,92.10
2019-04-07T08:32:57.641Z,91.60
2019-04-07T08:35:23.292Z,92.20
2019-04-07T08:37:50.830Z,91.60
2019-04-07T08:40:18.819Z,91.10
2019-04-07T08:42:48.481Z,90.60
2019-04-07T08:45:16.778Z,90.20
2019-04-07T08:47:47.357Z,90.00
2019-04-07T08:50:13.554Z,89.30
2019-04-07T08:52:43.022Z,88.90
2019-04-07T08:55:10.446Z,89.90
2019-04-07T08:57:37.983Z,87.80
2019-04-07T09:00:06.874Z,86.90
2019-04-07T09:02:34.703Z,86.00
2019-04-07T09:05:04.434Z,87.00
2019-04-07T09:07:33.379Z,84.30
2019-04-07T09:10:02.400Z,84.00
2019-04-07T09:12:31.364Z,82.50
2019-04-07T09:15:02.830Z,80.70
2019-04-07T09:17:47.779Z,79.40
2019-04-07T09:20:40.886Z,80.20
2019-04-07T09:23:25.665Z,78.20
2019-04-07T09:26:29.774Z,78.30
2019-04-07T09:29:28.178Z,76.30
2019-04-07T09:32:14.314Z,76.70
2019-04-07T09:35:07.230Z,75.60
2019-04-07T09:37:58.748Z,74.30
2019-04-07T09:44:19.803Z,76.30
2019-04-07T09:46:57.469Z,74.50
2019-04-07T09:49:49.606Z,73.00
2019-04-07T09:52:43.597Z,73.00
2019-04-07T09:55:20.519Z,70.70
2019-04-07T09:58:14.891Z,72.30
2019-04-07T10:01:01.987Z,71.40
2019-04-07T10:04:07.784Z,71.10
2019-04-07T10:07:15.116Z,71.10
2019-04-07T10:10:12.987Z,69.70
2019-04-07T10:12:48.714Z,69.30
2019-04-07T10:15:36.160Z,67.80
2019-04-07T10:18:09.846Z,65.50
2019-04-07T10:20:57.841Z,62.10
2019-04-07T10:23:50.915Z,61.00
2019-04-07T10:26:29.091Z,60.00
2019-04-07T10:29:19.789Z,59.90
2019-04-07T10:32:06.445Z,64.30
2019-04-07T10:34:56.623Z,63.40
2019-04-07T10:37:33.544Z,62.20
2019-04-07T10:40:22.207Z,60.80
2019-04-07T10:43:00.048Z,61.70
2019-04-07T10:45:41.754Z,58.30
2019-04-07T10:48:28.894Z,56.50
2019-04-07T10:51:15.321Z,58.40
2019-04-07T10:54:08.206Z,56.50
2019-04-07T10:56:55.253Z,54.00
2019-04-07T10:59:45.306Z,54.00
2019-04-07T11:02:41.487Z,55.20
2019-04-07T11:05:24.466Z,55.80
2019-04-07T11:08:10.592Z,51.70
2019-04-07T11:11:00.375Z,54.20
2019-04-07T11:13:45.694Z,52.80
2019-04-07T11:16:33.731Z,50.70
2019-04-07T11:22:50.171Z,50.80
2019-04-07T11:25:36.027Z,48.70
2019-04-07T11:28:21.775Z,49.40
2019-04-07T11:30:59.340Z,47.10
2019-04-07T11:33:58.850Z,46.40
2019-04-07T11:37:04.898Z,46.20
2019-04-07T11:39:48.218Z,48.10
2019-04-07T11:42:35.437Z,46.30
2019-04-07T11:45:26.955Z,43.20
2019-04-07T11:48:13.054Z,42.50
2019-04-07T11:51:09.620Z,44.00
2019-04-07T11:53:59.903Z,44.80
2019-04-07T11:56:47.136Z,44.80
2019-04-07T11:59:56.219Z,46.10
2019-04-07T12:02:44.274Z,45.40
2019-04-07T12:05:31.126Z,43.40
2019-04-07T12:08:17.173Z,45.00
2019-04-07T12:11:06.239Z,44.30
2019-04-07T12:13:58.718Z,43.70
2019-04-07T12:16:56.924Z,44.70
2019-04-07T12:19:28.971Z,46.70
2019-04-07T12:22:02.395Z,47.70
2019-04-07T12:25:05.785Z,43.90
2019-04-07T12:27:58.875Z,44.10
2019-04-07T12:30:48.788Z,42.50
2019-04-07T12:33:38.616Z,43.10
2019-04-07T12:36:26.591Z,44.70
2019-04-07T12:39:05.095Z,46.20
2019-04-07T12:41:48.814Z,46.90
2019-04-07T12:44:23.404Z,46.90
2019-04-07T12:47:05.347Z,48.50
2019-04-07T12:49:45.510Z,50.00
2019-04-07T12:52:35.340Z,48.70
2019-04-07T12:55:30.530Z,46.60
2019-04-07T12:58:13.020Z,45.70
2019-04-07T13:01:06.849Z,46.60
2019-04-07T13:03:57.446Z,45.40
2019-04-07T13:06:49.401Z,45.00
2019-04-07T13:09:32.320Z,44.40
2019-04-07T13:12:22.291Z,45.10
2019-04-07T13:15:08.551Z,44.80
2019-04-07T13:17:58.143Z,43.30
2019-04-07T13:20:32.124Z,43.00
2019-04-07T13:23:28.667Z,40.30
2019-04-07T13:26:21.956Z,42.90
2019-04-07T13:28:57.537Z,44.00
2019-04-07T13:31:33.143Z,43.80
2019-04-07T13:34:39.093Z,45.00
2019-04-07T13:37:26.509Z,45.00
2019-04-07T13:40:14.101Z,45.60
2019-04-07T13:43:09.941Z,45.80
2019-04-07T13:45:55.833Z,44.00
2019-04-07T13:48:53.685Z,42.70
2019-04-07T13:51:40.919Z,41.20
2019-04-07T13:54:30.782Z,40.80
2019-04-07T13:57:25.990Z,41.80
2019-04-07T14:00:18.423Z,44.00
2019-04-07T14:03:05.885Z,45.20
2019-04-07T14:06:04.897Z,46.50
2019-04-07T14:09:01.396Z,45.00
2019-04-07T14:12:04.877Z,43.90
2019-04-07T14:14:41.609Z,42.80
2019-04-07T14:17:29.697Z,42.00
2019-04-07T14:20:31.977Z,44.10
2019-04-07T14:23:18.667Z,43.40
2019-04-07T14:25:53.777Z,40.10
2019-04-07T14:28:47.552Z,37.50
2019-04-07T14:31:34.770Z,36.10
2019-04-07T14:34:10.733Z,37.30
2019-04-07T14:36:46.702Z,38.40
2019-04-07T14:39:33.628Z,38.50
2019-04-07T14:42:20.596Z,37.40
2019-04-07T14:45:07.783Z,36.20
2019-04-07T14:47:57.808Z,34.90
2019-04-07T14:50:34.492Z,34.80
2019-04-07T14:53:25.379Z,33.60
2019-04-07T14:56:18.620Z,33.70
2019-04-07T14:58:57.346Z,35.40
2019-04-07T15:01:36.840Z,35.80
2019-04-07T15:04:06.393Z,38.10
2019-04-07T15:06:34.948Z,39.80
2019-04-07T15:09:13.592Z,41.00
2019-04-07T15:11:46.779Z,41.20
2019-04-07T15:14:14.853Z,41.70
2019-04-07T15:16:42.872Z,39.50
2019-04-07T15:19:11.588Z,37.60
2019-04-07T15:21:40.025Z,39.60
2019-04-07T15:24:08.601Z,41.60
2019-04-07T15:26:37.850Z,43.00
2019-04-07T15:29:09.226Z,42.50
2019-04-07T15:31:36.303Z,43.20
2019-04-07T15:34:07.277Z,43.50
2019-04-07T15:36:34.910Z,44.40
2019-04-07T15:39:03.193Z,45.60
2019-04-07T15:41:30.793Z,46.60
2019-04-07T15:43:58.497Z,47.90
2019-04-07T15:46:26.773Z,48.30
2019-04-07T15:48:55.900Z,48.90
2019-04-07T15:51:23.838Z,48.90
2019-04-07T15:53:52.079Z,48.90
2019-04-07T15:56:20.799Z,49.20
2019-04-07T15:58:48.445Z,49.80
2019-04-07T16:01:19.209Z,50.20
2019-04-07T16:03:50.516Z,50.50
2019-04-07T16:06:16.676Z,50.90
2019-04-07T16:08:45.772Z,51.20
2019-04-07T16:11:13.358Z,51.30
2019-04-07T16:13:42.298Z,51.20
2019-04-07T16:16:09.775Z,51.80
2019-04-07T16:18:40.233Z,52.60
2019-04-07T16:21:09.077Z,52.60
2019-04-07T16:23:38.139Z,52.50
2019-04-07T16:26:06.642Z,52.70
2019-04-07T16:28:35.026Z,52.60
2019-04-07T16:31:02.719Z,52.50
2019-04-07T16:33:32.573Z,53.20
2019-04-07T16:36:00.058Z,53.90
2019-04-07T16:38:29.282Z,54.20
2019-04-07T16:40:56.884Z,54.30
2019-04-07T16:43:24.696Z,54.90
2019-04-07T16:45:53.596Z,55.50
2019-04-07T16:48:21.646Z,56.20
2019-04-07T16:50:53.317Z,56.80
2019-04-07T16:53:18.608Z,57.10
2019-04-07T16:55:48.891Z,56.90
2019-04-07T16:58:16.005Z,58.70
2019-04-07T17:00:47.532Z,58.10
2019-04-07T17:03:15.445Z,58.10
2019-04-07T17:05:43.147Z,58.70
2019-04-07T17:08:10.998Z,59.40
2019-04-07T17:10:39.153Z,60.70
2019-04-07T17:13:16.877Z,60.50
2019-04-07T17:15:39.579Z,61.30
2019-04-07T17:18:09.846Z,62.90
2019-04-07T17:20:38.157Z,63.50
2019-04-07T17:23:07.089Z,64.00
2019-04-07T17:25:35.789Z,64.90
2019-04-07T17:28:06.024Z,66.20
2019-04-07T17:30:33.936Z,66.40
2019-04-07T17:33:03.208Z,67.50
2019-04-07T17:35:31.176Z,68.00
2019-04-07T17:38:05.018Z,69.40
2019-04-07T17:40:33.740Z,69.80
2019-04-07T17:43:28.695Z,70.10
2019-04-07T17:46:02.527Z,71.10
2019-04-07T17:48:54.413Z,71.70
2019-04-07T17:51:27.474Z,72.60
2019-04-07T17:54:17.444Z,73.30
2019-04-07T17:57:12.283Z,73.20
2019-04-07T18:00:18.585Z,74.40
2019-04-07T18:02:58.982Z,75.30
2019-04-07T18:05:32.643Z,75.10
2019-04-07T18:08:18.333Z,75.50
2019-04-07T18:11:04.353Z,76.10
2019-04-07T18:13:57.451Z,77.50
2019-04-07T18:16:48.280Z,76.90
2019-04-07T18:19:27.103Z,77.80
2019-04-07T18:22:06.196Z,78.30
2019-04-07T18:24:43.758Z,78.60
2019-04-07T18:27:27.255Z,79.00
2019-04-07T18:30:20.561Z,79.20
2019-04-07T18:33:13.032Z,79.80
2019-04-07T18:36:07.025Z,79.90
2019-04-07T18:38:58.137Z,80.60
2019-04-07T18:41:41.296Z,80.60
2019-04-07T18:44:35.357Z,81.00
2019-04-07T18:47:20.831Z,81.40
2019-04-07T18:50:08.758Z,82.00
2019-04-07T18:52:57.267Z,81.60
2019-04-07T18:55:39.101Z,81.20
2019-04-07T18:58:47.110Z,82.30
2019-04-07T19:01:48.993Z,81.70
2019-04-07T19:04:38.791Z,81.70
2019-04-07T19:07:22.487Z,82.10
2019-04-07T19:10:08.668Z,82.80
2019-04-07T19:12:47.711Z,83.50
2019-04-07T19:15:37.101Z,83.50
2019-04-07T19:18:24.318Z,83.60
2019-04-07T19:21:13.753Z,84.10
2019-04-07T19:24:00.871Z,83.80
2019-04-07T19:26:52.343Z,84.50
2019-04-07T19:29:33.725Z,84.30
2019-04-07T19:32:29.764Z,85.00
2019-04-07T19:35:16.574Z,86.00
2019-04-07T19:37:53.886Z,85.80
2019-04-07T19:40:40.202Z,85.60
2019-04-07T19:43:25.305Z,86.10
2019-04-07T19:46:03.177Z,85.80
2019-04-07T19:48:56.297Z,86.10
2019-04-07T19:51:48.217Z,86.70
2019-04-07T19:54:29.394Z,86.90
2019-04-07T19:57:22.373Z,86.90
2019-04-07T19:59:59.278Z,87.10
2019-04-07T20:02:40.527Z,87.50
2019-04-07T20:05:34.666Z,88.10
2019-04-07T20:08:27.212Z,88.20
2019-04-07T20:11:12.748Z,88.50
2019-04-07T20:13:59.573Z,88.20
2019-04-07T20:16:55.641Z,88.10
2019-04-07T20:19:46.936Z,88.00
2019-04-07T20:22:23.124Z,88.70
2019-04-07T20:25:12.466Z,88.20
2019-04-07T20:28:13.107Z,88.30
2019-04-07T20:30:55.998Z,88.40
2019-04-07T20:33:44.567Z,88.50
2019-04-07T20:36:31.974Z,89.50
2019-04-07T20:39:13.596Z,88.40
2019-04-07T20:41:48.406Z,88.20
2019-04-07T20:44:34.411Z,88.30
2019-04-07T20:47:13.374Z,88.40
2019-04-07T20:50:00.431Z,88.60
2019-04-07T20:52:50.477Z,89.00
2019-04-07T20:55:37.338Z,89.60
2019-04-07T20:58:25.098Z,89.60
2019-04-07T21:01:12.978Z,90.10
2019-04-07T21:03:59.945Z,90.30
2019-04-07T21:06:47.601Z,90.70
2019-04-07T21:09:37.342Z,91.10
2019-04-07T21:12:28.604Z,91.40
2019-04-07T21:15:25.698Z,91.70
2019-04-07T21:18:06.867Z,92.10
2019-04-07T21:20:54.656Z,92.50
2019-04-07T21:23:41.176Z,92.80
2019-04-07T21:26:19.200Z,93.00
2019-04-07T21:29:01.070Z,93.30
2019-04-07T21:31:48.780Z,93.80
2019-04-07T21:34:29.587Z,93.60
2019-04-07T21:37:19.625Z,93.70
2019-04-07T21:40:04.177Z,93.80
2019-04-07T21:42:52.028Z,94.20
2019-04-07T21:45:41.106Z,94.10
2019-04-07T21:48:24.386Z,94.40
2019-04-07T21:51:14.283Z,94.30
2019-04-07T21:54:02.713Z,94.60
2019-04-07T21:56:45.189Z,94.50
2019-04-07T21:59:35.340Z,94.30
2019-04-07T22:02:25.726Z,94.60
2019-04-07T22:05:07.235Z,94.50
2019-04-07T22:07:53.545Z,94.40
2019-04-07T22:10:22.009Z,94.40
2019-04-07T22:12:50.323Z,94.60
2019-04-07T22:15:17.763Z,94.80
2019-04-07T22:17:45.803Z,94.90
2019-04-07T22:20:17.659Z,95.70
2019-04-07T22:22:43.213Z,96.20
2019-04-07T22:25:11.979Z,96.30
2019-04-07T22:27:39.436Z,96.20
2019-04-07T22:30:09.130Z,96.50
2019-04-07T22:32:36.609Z,96.70
2019-04-07T22:35:06.809Z,96.80
2019-04-07T22:37:34.498Z,97.50
2019-04-07T22:40:02.504Z,97.50
2019-04-07T22:42:30.983Z,97.40
2019-04-07T22:44:58.524Z,97.50
2019-04-07T22:47:25.964Z,97.50
2019-04-07T22:49:53.406Z,97.50
2019-04-07T22:52:20.886Z,98.00
2019-04-07T22:54:48.330Z,97.70
2019-04-07T22:57:15.790Z,97.50
2019-04-07T22:59:43.235Z,97.50
2019-04-07T23:02:11.499Z,97.50
2019-04-07T23:04:39.075Z,97.50
2019-04-07T23:07:06.507Z,97.40
2019-04-07T23:09:33.923Z,97.30
2019-04-07T23:12:02.209Z,97.40
2019-04-07T23:14:31.460Z,97.50
2019-04-07T23:16:59.161Z,97.70
2019-04-07T23:19:27.046Z,97.90
2019-04-07T23:21:55.433Z,97.90
2019-04-07T23:24:22.904Z,98.20
2019-04-07T23:26:50.992Z,98.60
2019-04-07T23:29:18.514Z,98.50
2019-04-07T23:31:47.108Z,98.90
2019-04-07T23:34:14.807Z,98.90
2019-04-07T23:36:43.568Z,98.80
2019-04-07T23:39:11.184Z,99.00
2019-04-07T23:41:39.367Z,99.00
2019-04-07T23:44:07.313Z,98.90
2019-04-07T23:46:35.801Z,99.00
2019-04-07T23:49:03.670Z,98.90
2019-04-07T23:51:31.083Z,99.00
2019-04-07T23:54:09.263Z,99.10
2019-04-07T23:56:37.223Z,99.10
2019-04-07T23:59:06.149Z,99.20
